sensor_id;sensor_type;location;lat;lon;timestamp;pressure;altitude;pressure_sealevel;temperature;humidity
68594;BME280;55563;52.416;13.548;2023-04-01T00:01:39;99298.66;;;8.85;100.00
68594;BME280;55563;52.416;13.548;2023-04-01T00:02:32;99294.97;;;8.86;100.00
68594;BME280;55563;52.416;13.548;2023-04-01T00:04:33;99301.00;;;8.87;100.00
68594;BME280;55563;52.416;13.548;2023-04-01T00:06:34;99298.38;;;8.87;100.00
68594;BME280;55563;52.416;13.548;2023-04-01T00:08:34;99293.97;;;8.82;100.00
68594;BME280;55563;52.416;13.548;2023-04-01T00:10:35;99296.03;;;8.85;100.00
68594;BME280;55563;52.416;13.548;2023-04-01T00:12:36;99288.19;;;8.85;100.00
68594;BME280;55563;52.416;13.548;2023-04-01T00:14:37;99292.38;;;8.86;100.00
68594;BME280;55563;52.416;13.548;2023-04-01T00:16:38;99292.38;;;8.86;100.00
68594;BME280;55563;52.416;13.548;2023-04-01T00:18:39;99291.31;;;8.87;100.00
68594;BME280;55563;52.416;13.548;2023-04-01T00:20:45;99290.59;;;8.82;100.00
68594;BME280;55563;52.416;13.548;2023-04-01T00:22:46;99291.38;;;8.82;100.00
68594;BME280;55563;52.416;13.548;2023-04-01T00:24:46;99297.59;;;8.86;100.00
68594;BME280;55563;52.416;13.548;2023-04-01T00:26:47;99290.22;;;8.88;100.00
68594;BME280;55563;52.416;13.548;2023-04-01T00:28:49;99289.44;;;8.88;100.00
68594;BME280;55563;52.416;13.548;2023-04-01T00:30:50;99294.19;;;8.86;100.00
68594;BME280;55563;52.416;13.548;2023-04-01T00:32:52;99298.09;;;8.88;100.00
68594;BME280;55563;52.416;13.548;2023-04-01T00:34:53;99294.69;;;8.88;100.00
68594;BME280;55563;52.416;13.548;2023-04-01T00:36:54;99292.06;;;8.88;100.00
68594;BME280;55563;52.416;13.548;2023-04-01T00:38:54;99292.63;;;8.85;100.00
68594;BME280;55563;52.416;13.548;2023-04-01T00:40:57;99290.78;;;8.85;100.00
68594;BME280;55563;52.416;13.548;2023-04-01T00:42:59;99298.38;;;8.87;100.00
68594;BME280;55563;52.416;13.548;2023-04-01T00:45:36;99295.75;;;8.87;100.00
68594;BME280;55563;52.416;13.548;2023-04-01T00:47:37;99294.97;;;8.86;100.00
68594;BME280;55563;52.416;13.548;2023-04-01T00:49:40;99298.09;;;8.88;100.00
68594;BME280;55563;52.416;13.548;2023-04-01T00:51:45;99299.91;;;8.88;100.00
68594;BME280;55563;52.416;13.548;2023-04-01T00:53:48;99291.31;;;8.87;100.00
68594;BME280;55563;52.416;13.548;2023-04-01T00:55:55;99295.47;;;8.88;100.00
68594;BME280;55563;52.416;13.548;2023-04-01T00:57:58;99298.13;;;8.83;100.00
68594;BME280;55563;52.416;13.548;2023-04-01T01:00:00;99297.94;;;8.80;100.00
68594;BME280;55563;52.416;13.548;2023-04-01T01:02:03;99294.81;;;8.78;100.00
68594;BME280;55563;52.416;13.548;2023-04-01T01:04:06;99304.22;;;8.79;100.00
68594;BME280;55563;52.416;13.548;2023-04-01T01:06:34;99292.84;;;8.64;100.00
68594;BME280;55563;52.416;13.548;2023-04-01T01:09:06;99301.38;;;8.75;100.00
68594;BME280;55563;52.416;13.548;2023-04-01T01:11:09;99303.22;;;8.74;100.00
68594;BME280;55563;52.416;13.548;2023-04-01T01:13:48;99295.56;;;8.78;100.00
68594;BME280;55563;52.416;13.548;2023-04-01T01:15:58;99299.28;;;8.77;100.00
68594;BME280;55563;52.416;13.548;2023-04-01T01:20:48;99304.78;;;8.75;100.00
68594;BME280;55563;52.416;13.548;2023-04-01T01:25:40;99303.72;;;8.77;100.00
68594;BME280;55563;52.416;13.548;2023-04-01T01:27:57;99304.22;;;8.79;100.00
68594;BME280;55563;52.416;13.548;2023-04-01T01:30:19;99301.31;;;8.80;100.00
68594;BME280;55563;52.416;13.548;2023-04-01T01:33:00;99295.19;;;8.66;100.00
68594;BME280;55563;52.416;13.548;2023-04-01T01:35:24;99303.72;;;8.77;100.00
68594;BME280;55563;52.416;13.548;2023-04-01T01:37:29;99311.84;;;8.75;100.00
68594;BME280;55563;52.416;13.548;2023-04-01T01:39:33;99305.84;;;8.74;100.00
68594;BME280;55563;52.416;13.548;2023-04-01T01:41:37;99305.31;;;8.78;100.00
68594;BME280;55563;52.416;13.548;2023-04-01T01:43:43;99303.94;;;8.80;100.00
68594;BME280;55563;52.416;13.548;2023-04-01T01:45:50;99309.19;;;8.80;100.00
68594;BME280;55563;52.416;13.548;2023-04-01T01:47:54;99314.69;;;8.79;100.00
68594;BME280;55563;52.416;13.548;2023-04-01T01:49:56;99314.94;;;8.82;100.00
68594;BME280;55563;52.416;13.548;2023-04-01T01:51:57;99321.69;;;8.59;100.00
68594;BME280;55563;52.416;13.548;2023-04-01T01:53:58;99320.28;;;8.72;100.00
68594;BME280;55563;52.416;13.548;2023-04-01T01:55:59;99316.16;;;8.66;100.00
68594;BME280;55563;52.416;13.548;2023-04-01T01:58:07;99317.66;;;8.72;100.00
68594;BME280;55563;52.416;13.548;2023-04-01T02:00:13;99324.19;;;8.74;100.00
68594;BME280;55563;52.416;13.548;2023-04-01T02:02:18;99315.00;;;8.77;100.00
68594;BME280;55563;52.416;13.548;2023-04-01T02:04:21;99316.53;;;8.78;100.00
68594;BME280;55563;52.416;13.548;2023-04-01T02:06:26;99325.47;;;8.77;100.00
68594;BME280;55563;52.416;13.548;2023-04-01T02:09:08;99315.25;;;8.75;100.00
68594;BME280;55563;52.416;13.548;2023-04-01T02:11:02;99317.63;;;8.77;100.00
68594;BME280;55563;52.416;13.548;2023-04-01T02:13:20;99318.88;;;8.80;100.00
68594;BME280;55563;52.416;13.548;2023-04-01T02:15:24;99317.31;;;8.79;100.00
68594;BME280;55563;52.416;13.548;2023-04-01T02:17:29;99316.84;;;8.77;100.00
68594;BME280;55563;52.416;13.548;2023-04-01T02:19:36;99324.91;;;8.80;100.00
68594;BME280;55563;52.416;13.548;2023-04-01T02:21:39;99319.66;;;8.80;100.00
68594;BME280;55563;52.416;13.548;2023-04-01T02:23:41;99318.63;;;8.81;100.00
68594;BME280;55563;52.416;13.548;2023-04-01T02:25:43;99312.31;;;8.82;100.00
68594;BME280;55563;52.416;13.548;2023-04-01T02:27:45;99321.28;;;8.76;100.00
68594;BME280;55563;52.416;13.548;2023-04-01T02:29:46;99315.47;;;8.79;100.00
68594;BME280;55563;52.416;13.548;2023-04-01T02:31:49;99324.41;;;8.78;100.00
68594;BME280;55563;52.416;13.548;2023-04-01T02:33:51;99319.22;;;8.73;100.00
68594;BME280;55563;52.416;13.548;2023-04-01T02:35:52;99321.03;;;8.78;100.00
68594;BME280;55563;52.416;13.548;2023-04-01T02:37:55;99325.75;;;8.75;100.00
68594;BME280;55563;52.416;13.548;2023-04-01T02:40:00;99328.81;;;8.54;100.00
68594;BME280;55563;52.416;13.548;2023-04-01T02:42:01;99329.16;;;8.47;100.00
68594;BME280;55563;52.416;13.548;2023-04-01T02:44:03;99330.66;;;8.58;100.00
68594;BME280;55563;52.416;13.548;2023-04-01T02:46:04;99335.31;;;8.61;100.00
68594;BME280;55563;52.416;13.548;2023-04-01T02:48:05;99336.31;;;8.65;100.00
68594;BME280;55563;52.416;13.548;2023-04-01T02:50:06;99342.84;;;8.68;100.00
68594;BME280;55563;52.416;13.548;2023-04-01T02:52:07;99343.66;;;8.63;100.00
68594;BME280;55563;52.416;13.548;2023-04-01T02:54:07;99346.78;;;8.65;100.00
68594;BME280;55563;52.416;13.548;2023-04-01T02:56:08;99343.34;;;8.70;100.00
68594;BME280;55563;52.416;13.548;2023-04-01T02:58:09;99343.28;;;8.75;100.00
68594;BME280;55563;52.416;13.548;2023-04-01T03:00:10;99344.59;;;8.78;100.00
68594;BME280;55563;52.416;13.548;2023-04-01T03:02:11;99337.75;;;8.82;100.00
68594;BME280;55563;52.416;13.548;2023-04-01T03:04:12;99340.06;;;8.83;100.00
68594;BME280;55563;52.416;13.548;2023-04-01T03:06:15;99340.06;;;8.83;100.00
68594;BME280;55563;52.416;13.548;2023-04-01T03:08:16;99339.00;;;8.84;100.00
68594;BME280;55563;52.416;13.548;2023-04-01T03:10:17;99339.78;;;8.85;100.00
68594;BME280;55563;52.416;13.548;2023-04-01T03:12:18;99342.41;;;8.85;100.00
68594;BME280;55563;52.416;13.548;2023-04-01T03:14:24;99345.03;;;8.85;100.00
68594;BME280;55563;52.416;13.548;2023-04-01T03:16:25;99337.97;;;8.85;100.00
68594;BME280;55563;52.416;13.548;2023-04-01T03:18:26;99342.69;;;8.83;100.00
68594;BME280;55563;52.416;13.548;2023-04-01T03:20:27;99345.59;;;8.82;100.00
68594;BME280;55563;52.416;13.548;2023-04-01T03:22:27;99340.84;;;8.84;100.00
68594;BME280;55563;52.416;13.548;2023-04-01T03:24:28;99340.63;;;8.80;100.00
68594;BME280;55563;52.416;13.548;2023-04-01T03:26:28;99351.47;;;8.68;100.00
68594;BME280;55563;52.416;13.548;2023-04-01T03:28:29;99359.63;;;8.67;100.00
68594;BME280;55563;52.416;13.548;2023-04-01T03:30:30;99348.38;;;8.66;100.00
68594;BME280;55563;52.416;13.548;2023-04-01T03:32:32;99349.41;;;8.65;100.00
68594;BME280;55563;52.416;13.548;2023-04-01T03:34:32;99351.91;;;8.52;100.00
68594;BME280;55563;52.416;13.548;2023-04-01T03:36:33;99362.06;;;8.58;100.00
68594;BME280;55563;52.416;13.548;2023-04-01T03:38:35;99357.41;;;8.50;100.00
68594;BME280;55563;52.416;13.548;2023-04-01T03:40:35;99362.19;;;8.43;100.00
68594;BME280;55563;52.416;13.548;2023-04-01T03:42:40;99364.22;;;8.51;100.00
68594;BME280;55563;52.416;13.548;2023-04-01T03:44:41;99367.44;;;8.43;100.00
68594;BME280;55563;52.416;13.548;2023-04-01T03:46:44;99370.50;;;8.50;100.00
68594;BME280;55563;52.416;13.548;2023-04-01T03:48:45;99372.28;;;8.55;100.00
68594;BME280;55563;52.416;13.548;2023-04-01T03:50:46;99373.50;;;8.39;100.00
68594;BME280;55563;52.416;13.548;2023-04-01T03:52:48;99374.22;;;8.44;100.00
68594;BME280;55563;52.416;13.548;2023-04-01T03:54:48;99382.03;;;8.49;100.00
68594;BME280;55563;52.416;13.548;2023-04-01T03:56:50;99382.41;;;8.38;100.00
68594;BME280;55563;52.416;13.548;2023-04-01T03:58:50;99393.38;;;8.40;100.00
68594;BME280;55563;52.416;13.548;2023-04-01T04:00:51;99389.66;;;8.46;100.00
68594;BME280;55563;52.416;13.548;2023-04-01T04:02:51;99384.41;;;8.46;100.00
68594;BME280;55563;52.416;13.548;2023-04-01T04:04:58;99389.88;;;8.49;100.00
68594;BME280;55563;52.416;13.548;2023-04-01T04:07:01;99389.13;;;8.49;100.00
68594;BME280;55563;52.416;13.548;2023-04-01T04:09:06;99390.97;;;8.48;100.00
68594;BME280;55563;52.416;13.548;2023-04-01T04:11:07;99399.53;;;8.54;100.00
68594;BME280;55563;52.416;13.548;2023-04-01T04:13:11;99394.28;;;8.54;100.00
68594;BME280;55563;52.416;13.548;2023-04-01T04:15:18;99397.94;;;8.58;100.00
68594;BME280;55563;52.416;13.548;2023-04-01T04:17:19;99405.25;;;8.61;100.00
68594;BME280;55563;52.416;13.548;2023-04-01T04:19:21;99400.66;;;8.48;100.00
68594;BME280;55563;52.416;13.548;2023-04-01T04:21:21;99401.63;;;8.57;100.00
68594;BME280;55563;52.416;13.548;2023-04-01T04:23:22;99400.84;;;8.56;100.00
68594;BME280;55563;52.416;13.548;2023-04-01T04:25:22;99396.41;;;8.52;100.00
68594;BME280;55563;52.416;13.548;2023-04-01T04:27:23;99401.88;;;8.55;100.00
68594;BME280;55563;52.416;13.548;2023-04-01T04:29:40;99401.44;;;8.48;100.00
68594;BME280;55563;52.416;13.548;2023-04-01T04:31:41;99405.06;;;8.52;100.00
68594;BME280;55563;52.416;13.548;2023-04-01T04:33:41;99402.41;;;8.57;100.00
68594;BME280;55563;52.416;13.548;2023-04-01T04:35:42;99402.16;;;8.54;100.00
68594;BME280;55563;52.416;13.548;2023-04-01T04:37:43;99405.03;;;8.57;100.00
68594;BME280;55563;52.416;13.548;2023-04-01T04:39:45;99412.97;;;8.47;100.00
68594;BME280;55563;52.416;13.548;2023-04-01T04:41:45;99410.56;;;8.51;100.00
68594;BME280;55563;52.416;13.548;2023-04-01T04:43:48;99418.94;;;8.53;100.00
68594;BME280;55563;52.416;13.548;2023-04-01T04:45:50;99411.31;;;8.56;100.00
68594;BME280;55563;52.416;13.548;2023-04-01T04:47:51;99405.75;;;8.63;100.00
68594;BME280;55563;52.416;13.548;2023-04-01T04:49:52;99411.72;;;8.68;100.00
68594;BME280;55563;52.416;13.548;2023-04-01T04:51:53;99414.91;;;8.65;100.00
68594;BME280;55563;52.416;13.548;2023-04-01T04:53:56;99404.19;;;8.62;100.00
68594;BME280;55563;52.416;13.548;2023-04-01T04:56:08;99419.34;;;8.65;100.00
68594;BME280;55563;52.416;13.548;2023-04-01T04:58:19;99421.19;;;8.64;100.00
68594;BME280;55563;52.416;13.548;2023-04-01T05:00:21;99418.56;;;8.64;100.00
68594;BME280;55563;52.416;13.548;2023-04-01T05:02:28;99428.34;;;8.54;100.00
68594;BME280;55563;52.416;13.548;2023-04-01T05:04:29;99420.28;;;8.45;100.00
68594;BME280;55563;52.416;13.548;2023-04-01T05:06:30;99426.09;;;8.42;100.00
68594;BME280;55563;52.416;13.548;2023-04-01T05:08:32;99425.81;;;8.44;100.00
68594;BME280;55563;52.416;13.548;2023-04-01T05:10:33;99431.03;;;8.49;100.00
68594;BME280;55563;52.416;13.548;2023-04-01T05:12:34;99428.03;;;8.60;100.00
68594;BME280;55563;52.416;13.548;2023-04-01T05:14:38;99427.44;;;8.68;100.00
68594;BME280;55563;52.416;13.548;2023-04-01T05:16:43;99430.44;;;8.57;100.00
68594;BME280;55563;52.416;13.548;2023-04-01T05:18:45;99435.41;;;8.58;100.00
68594;BME280;55563;52.416;13.548;2023-04-01T05:20:48;99429.00;;;8.69;100.00
68594;BME280;55563;52.416;13.548;2023-04-01T05:22:53;99438.28;;;8.57;100.00
68594;BME280;55563;52.416;13.548;2023-04-01T05:24:55;99426.97;;;8.61;100.00
68594;BME280;55563;52.416;13.548;2023-04-01T05:26:57;99433.94;;;8.76;100.00
68594;BME280;55563;52.416;13.548;2023-04-01T05:28:59;99431.75;;;8.83;100.00
68594;BME280;55563;52.416;13.548;2023-04-01T05:31:01;99434.91;;;8.85;100.00
68594;BME280;55563;52.416;13.548;2023-04-01T05:33:08;99431.53;;;8.80;100.00
68594;BME280;55563;52.416;13.548;2023-04-01T05:35:09;99433.66;;;8.78;100.00
68594;BME280;55563;52.416;13.548;2023-04-01T05:37:10;99431.03;;;8.78;100.00
68594;BME280;55563;52.416;13.548;2023-04-01T05:39:11;99436.50;;;8.81;100.00
68594;BME280;55563;52.416;13.548;2023-04-01T05:41:14;99434.91;;;8.85;100.00
68594;BME280;55563;52.416;13.548;2023-04-01T05:43:18;99443.59;;;8.81;100.00
68594;BME280;55563;52.416;13.548;2023-04-01T05:45:22;99443.31;;;8.82;100.00
68594;BME280;55563;52.416;13.548;2023-04-01T05:47:43;99446.38;;;8.89;100.00
68594;BME280;55563;52.416;13.548;2023-04-01T05:49:43;99445.91;;;8.87;100.00
68594;BME280;55563;52.416;13.548;2023-04-01T05:51:44;99450.06;;;8.88;100.00
68594;BME280;55563;52.416;13.548;2023-04-01T05:53:45;99454.72;;;8.96;100.00
68594;BME280;55563;52.416;13.548;2023-04-01T05:55:46;99454.91;;;9.05;100.00
68594;BME280;55563;52.416;13.548;2023-04-01T05:57:48;99451.72;;;9.08;100.00
68594;BME280;55563;52.416;13.548;2023-04-01T05:59:49;99454.84;;;9.10;100.00
68594;BME280;55563;52.416;13.548;2023-04-01T06:01:51;99448.31;;;9.07;100.00
68594;BME280;55563;52.416;13.548;2023-04-01T06:03:53;99458.25;;;9.10;100.00
68594;BME280;55563;52.416;13.548;2023-04-01T06:05:54;99455.91;;;9.09;100.00
68594;BME280;55563;52.416;13.548;2023-04-01T06:08:01;99456.69;;;9.09;100.00
68594;BME280;55563;52.416;13.548;2023-04-01T06:10:12;99460.56;;;9.12;100.00
68594;BME280;55563;52.416;13.548;2023-04-01T06:12:23;99460.56;;;9.12;100.00
68594;BME280;55563;52.416;13.548;2023-04-01T06:14:56;99460.31;;;9.13;100.00
68594;BME280;55563;52.416;13.548;2023-04-01T06:17:26;99468.13;;;9.18;100.00
68594;BME280;55563;52.416;13.548;2023-04-01T06:19:42;99470.97;;;9.22;100.00
68594;BME280;55563;52.416;13.548;2023-04-01T06:22:19;99468.66;;;9.21;100.00
68594;BME280;55563;52.416;13.548;2023-04-01T06:24:37;99471.97;;;9.26;100.00
68594;BME280;55563;52.416;13.548;2023-04-01T06:27:08;99470.44;;;9.25;100.00
68594;BME280;55563;52.416;13.548;2023-04-01T06:29:40;99475.63;;;9.30;100.00
68594;BME280;55563;52.416;13.548;2023-04-01T06:32:40;99473.00;;;9.30;100.00
68594;BME280;55563;52.416;13.548;2023-04-01T06:42:10;99478.16;;;9.35;100.00
68594;BME280;55563;52.416;13.548;2023-04-01T06:44:23;99480.25;;;9.38;100.00
68594;BME280;55563;52.416;13.548;2023-04-01T06:46:58;99489.13;;;9.42;100.00
68594;BME280;55563;52.416;13.548;2023-04-01T06:49:53;99489.38;;;9.41;100.00
68594;BME280;55563;52.416;13.548;2023-04-01T06:52:28;99482.78;;;9.48;100.00
68594;BME280;55563;52.416;13.548;2023-04-01T06:54:58;99497.47;;;9.49;100.00
68594;BME280;55563;52.416;13.548;2023-04-01T06:57:43;99493.75;;;9.50;100.00
68594;BME280;55563;52.416;13.548;2023-04-01T06:59:46;99492.25;;;9.44;100.00
68594;BME280;55563;52.416;13.548;2023-04-01T07:01:51;99499.09;;;9.40;100.00
68594;BME280;55563;52.416;13.548;2023-04-01T07:03:58;99497.72;;;9.48;100.00
68594;BME280;55563;52.416;13.548;2023-04-01T07:06:04;99493.31;;;9.43;100.00
68594;BME280;55563;52.416;13.548;2023-04-01T07:08:18;99494.31;;;9.47;100.00
68594;BME280;55563;52.416;13.548;2023-04-01T07:10:58;99497.50;;;9.44;100.00
68594;BME280;55563;52.416;13.548;2023-04-01T07:13:27;99500.06;;;9.49;100.00
68594;BME280;55563;52.416;13.548;2023-04-01T07:15:38;99500.00;;;9.54;100.00
68594;BME280;55563;52.416;13.548;2023-04-01T07:17:43;99503.34;;;9.60;100.00
68594;BME280;55563;52.416;13.548;2023-04-01T07:19:47;99505.44;;;9.63;100.00
68594;BME280;55563;52.416;13.548;2023-04-01T07:22:00;99506.16;;;9.69;100.00
68594;BME280;55563;52.416;13.548;2023-04-01T07:24:25;99508.69;;;9.74;100.00
68594;BME280;55563;52.416;13.548;2023-04-01T07:26:37;99514.97;;;9.78;100.00
68594;BME280;55563;52.416;13.548;2023-04-01T07:28:42;99506.53;;;9.81;100.00
68594;BME280;55563;52.416;13.548;2023-04-01T07:31:18;99513.91;;;9.79;100.00
68594;BME280;55563;52.416;13.548;2023-04-01T07:33:29;99512.25;;;9.88;100.00
68594;BME280;55563;52.416;13.548;2023-04-01T07:35:38;99517.34;;;9.98;100.00
68594;BME280;55563;52.416;13.548;2023-04-01T07:38:11;99519.63;;;10.04;100.00
68594;BME280;55563;52.416;13.548;2023-04-01T07:40:31;99513.25;;;10.11;100.00
68594;BME280;55563;52.416;13.548;2023-04-01T07:42:49;99508.34;;;10.04;100.00
68594;BME280;55563;52.416;13.548;2023-04-01T07:45:18;99510.81;;;10.19;100.00
68594;BME280;55563;52.416;13.548;2023-04-01T07:52:25;99512.66;;;10.37;100.00
68594;BME280;55563;52.416;13.548;2023-04-01T07:54:55;99510.94;;;10.46;100.00
68594;BME280;55563;52.416;13.548;2023-04-01T07:57:35;99513.94;;;10.59;100.00
68594;BME280;55563;52.416;13.548;2023-04-01T08:04:58;99503.28;;;11.01;100.00
68594;BME280;55563;52.416;13.548;2023-04-01T08:07:10;99512.03;;;10.97;100.00
68594;BME280;55563;52.416;13.548;2023-04-01T08:10:18;99501.75;;;11.14;100.00
68594;BME280;55563;52.416;13.548;2023-04-01T08:12:41;99505.34;;;11.18;100.00
68594;BME280;55563;52.416;13.548;2023-04-01T08:15:15;99513.81;;;11.01;100.00
68594;BME280;55563;52.416;13.548;2023-04-01T08:20:23;99510.00;;;11.53;100.00
68594;BME280;55563;52.416;13.548;2023-04-01T08:22:33;99508.06;;;11.59;100.00
68594;BME280;55563;52.416;13.548;2023-04-01T08:24:42;99507.09;;;11.96;100.00
68594;BME280;55563;52.416;13.548;2023-04-01T08:26:48;99510.69;;;11.86;100.00
68594;BME280;55563;52.416;13.548;2023-04-01T08:31:22;99514.13;;;11.73;100.00
68594;BME280;55563;52.416;13.548;2023-04-01T08:33:27;99514.00;;;11.64;100.00
68594;BME280;55563;52.416;13.548;2023-04-01T08:35:48;99519.63;;;11.30;100.00
68594;BME280;55563;52.416;13.548;2023-04-01T08:37:52;99520.38;;;11.17;100.00
68594;BME280;55563;52.416;13.548;2023-04-01T08:40:01;99523.84;;;11.45;100.00
68594;BME280;55563;52.416;13.548;2023-04-01T08:45:30;99525.97;;;11.70;100.00
68594;BME280;55563;52.416;13.548;2023-04-01T08:52:58;99536.97;;;10.99;100.00
68594;BME280;55563;52.416;13.548;2023-04-01T08:55:54;99532.25;;;11.15;100.00
68594;BME280;55563;52.416;13.548;2023-04-01T08:58:00;99535.06;;;11.18;100.00
68594;BME280;55563;52.416;13.548;2023-04-01T09:00:33;99543.09;;;10.76;100.00
68594;BME280;55563;52.416;13.548;2023-04-01T09:21:43;99593.66;;;9.54;100.00
68594;BME280;55563;52.416;13.548;2023-04-01T09:27:00;99594.72;;;9.82;100.00
68594;BME280;55563;52.416;13.548;2023-04-01T09:35:05;99609.63;;;9.57;100.00
68594;BME280;55563;52.416;13.548;2023-04-01T09:37:26;99602.59;;;9.53;100.00
68594;BME280;55563;52.416;13.548;2023-04-01T09:39:43;99608.75;;;9.38;100.00
68594;BME280;55563;52.416;13.548;2023-04-01T09:42:25;99612.44;;;9.37;100.00
68594;BME280;55563;52.416;13.548;2023-04-01T09:45:00;99615.47;;;9.49;100.00
68594;BME280;55563;52.416;13.548;2023-04-01T09:52:38;99626.00;;;9.44;100.00
68594;BME280;55563;52.416;13.548;2023-04-01T09:55:18;99629.94;;;9.42;100.00
68594;BME280;55563;52.416;13.548;2023-04-01T10:00:48;99638.25;;;9.20;100.00
68594;BME280;55563;52.416;13.548;2023-04-01T10:03:17;99636.03;;;9.37;100.00
68594;BME280;55563;52.416;13.548;2023-04-01T10:05:53;99638.75;;;9.22;100.00
68594;BME280;55563;52.416;13.548;2023-04-01T10:20:45;99640.53;;;9.32;100.00
68594;BME280;55563;52.416;13.548;2023-04-01T10:25:29;99654.75;;;9.54;100.00
68594;BME280;55563;52.416;13.548;2023-04-01T10:27:52;99645.44;;;9.43;100.00
68594;BME280;55563;52.416;13.548;2023-04-01T10:34:01;99647.38;;;9.61;100.00
68594;BME280;55563;52.416;13.548;2023-04-01T10:41:05;99659.72;;;9.22;100.00
68594;BME280;55563;52.416;13.548;2023-04-01T10:46:47;99656.47;;;9.01;100.00
68594;BME280;55563;52.416;13.548;2023-04-01T10:49:10;99666.06;;;9.16;100.00
68594;BME280;55563;52.416;13.548;2023-04-01T10:53:50;99666.66;;;9.03;100.00
68594;BME280;55563;52.416;13.548;2023-04-01T10:59:00;99668.56;;;9.31;100.00
68594;BME280;55563;52.416;13.548;2023-04-01T11:01:47;99667.59;;;9.22;100.00
68594;BME280;55563;52.416;13.548;2023-04-01T11:07:22;99668.13;;;9.24;100.00
68594;BME280;55563;52.416;13.548;2023-04-01T11:10:02;99673.34;;;9.29;100.00
68594;BME280;55563;52.416;13.548;2023-04-01T11:12:39;99668.84;;;8.91;100.00
68594;BME280;55563;52.416;13.548;2023-04-01T11:20:28;99678.47;;;9.05;100.00
68594;BME280;55563;52.416;13.548;2023-04-01T11:23:22;99686.00;;;9.12;100.00
68594;BME280;55563;52.416;13.548;2023-04-01T11:33:54;99696.19;;;8.69;100.00
68594;BME280;55563;52.416;13.548;2023-04-01T11:38:41;99698.41;;;9.01;100.00
68594;BME280;55563;52.416;13.548;2023-04-01T11:41:31;99699.09;;;8.68;100.00
68594;BME280;55563;52.416;13.548;2023-04-01T11:44:29;99709.59;;;8.63;100.00
68594;BME280;55563;52.416;13.548;2023-04-01T11:52:15;99713.22;;;8.72;100.00
68594;BME280;55563;52.416;13.548;2023-04-01T11:54:48;99717.91;;;8.80;100.00
68594;BME280;55563;52.416;13.548;2023-04-01T12:02:08;99728.97;;;8.62;100.00
68594;BME280;55563;52.416;13.548;2023-04-01T12:07:10;99730.84;;;8.46;100.00
68594;BME280;55563;52.416;13.548;2023-04-01T12:16:42;99745.78;;;8.30;100.00
68594;BME280;55563;52.416;13.548;2023-04-01T12:18:59;99750.50;;;8.18;100.00
68594;BME280;55563;52.416;13.548;2023-04-01T12:23:51;99757.31;;;8.35;100.00
68594;BME280;55563;52.416;13.548;2023-04-01T12:26:55;99765.91;;;8.25;100.00
68594;BME280;55563;52.416;13.548;2023-04-01T12:29:18;99765.97;;;7.95;100.00
68594;BME280;55563;52.416;13.548;2023-04-01T12:31:27;99771.19;;;8.05;100.00
68594;BME280;55563;52.416;13.548;2023-04-01T12:36:25;99769.09;;;8.02;100.00
68594;BME280;55563;52.416;13.548;2023-04-01T12:48:32;99788.97;;;8.03;100.00
68594;BME280;55563;52.416;13.548;2023-04-01T12:51:11;99780.34;;;7.97;100.00
68594;BME280;55563;52.416;13.548;2023-04-01T12:53:41;99789.50;;;7.95;100.00
68594;BME280;55563;52.416;13.548;2023-04-01T12:55:45;99795.53;;;8.05;100.00
68594;BME280;55563;52.416;13.548;2023-04-01T13:00:43;99801.56;;;7.91;100.00
68594;BME280;55563;52.416;13.548;2023-04-01T13:07:49;99808.38;;;8.32;100.00
68594;BME280;55563;52.416;13.548;2023-04-01T13:10:15;99801.03;;;8.04;100.00
68594;BME280;55563;52.416;13.548;2023-04-01T13:12:44;99810.97;;;8.07;100.00
68594;BME280;55563;52.416;13.548;2023-04-01T13:22:41;99827.44;;;7.92;100.00
68594;BME280;55563;52.416;13.548;2023-04-01T13:25:00;99821.97;;;8.09;100.00
68594;BME280;55563;52.416;13.548;2023-04-01T13:27:33;99820.88;;;7.79;100.00
68594;BME280;55563;52.416;13.548;2023-04-01T13:29:39;99825.34;;;7.99;100.00
68594;BME280;55563;52.416;13.548;2023-04-01T13:34:52;99836.34;;;7.81;100.00
68594;BME280;55563;52.416;13.548;2023-04-01T13:39:46;99846.25;;;7.79;100.00
68594;BME280;55563;52.416;13.548;2023-04-01T13:42:13;99839.75;;;8.02;100.00
68594;BME280;55563;52.416;13.548;2023-04-01T13:44:38;99844.44;;;7.89;100.00
68594;BME280;55563;52.416;13.548;2023-04-01T13:49:40;99851.81;;;8.23;100.00
68594;BME280;55563;52.416;13.548;2023-04-01T13:52:29;99848.16;;;8.19;100.00
68594;BME280;55563;52.416;13.548;2023-04-01T13:54:27;99852.06;;;8.26;100.00
68594;BME280;55563;52.416;13.548;2023-04-01T13:59:08;99857.28;;;8.01;100.00
68594;BME280;55563;52.416;13.548;2023-04-01T14:01:40;99853.09;;;7.95;100.00
68594;BME280;55563;52.416;13.548;2023-04-01T14:04:03;99862.81;;;8.35;100.00
68594;BME280;55563;52.416;13.548;2023-04-01T14:11:50;99867.72;;;7.81;100.00
68594;BME280;55563;52.416;13.548;2023-04-01T14:16:40;99875.34;;;8.08;100.00
68594;BME280;55563;52.416;13.548;2023-04-01T14:21:35;99878.34;;;7.54;100.00
68594;BME280;55563;52.416;13.548;2023-04-01T14:23:56;99888.13;;;7.89;100.00
68594;BME280;55563;52.416;13.548;2023-04-01T14:31:36;99891.44;;;7.54;100.00
68594;BME280;55563;52.416;13.548;2023-04-01T14:34:11;99899.22;;;7.44;100.00
68594;BME280;55563;52.416;13.548;2023-04-01T14:38:54;99899.59;;;7.73;100.00
68594;BME280;55563;52.416;13.548;2023-04-01T14:44:05;99908.88;;;7.33;100.00
68594;BME280;55563;52.416;13.548;2023-04-01T14:47:04;99912.25;;;7.34;100.00
68594;BME280;55563;52.416;13.548;2023-04-01T14:48:57;99918.00;;;7.31;100.00
68594;BME280;55563;52.416;13.548;2023-04-01T14:51:23;99927.75;;;7.45;100.00
68594;BME280;55563;52.416;13.548;2023-04-01T14:58:15;99933.66;;;7.26;100.00
68594;BME280;55563;52.416;13.548;2023-04-01T15:00:18;99935.38;;;7.10;100.00
68594;BME280;55563;52.416;13.548;2023-04-01T15:20:16;99939.00;;;6.99;100.00